createdAt,value
2018-12-20T00:02:12.045Z,76.11
2018-12-20T00:04:40.295Z,76.08
2018-12-20T00:07:08.648Z,75.96
2018-12-20T00:09:37.068Z,75.76
2018-12-20T00:12:05.415Z,75.84
2018-12-20T00:14:33.760Z,75.87
2018-12-20T00:17:07.868Z,75.66
2018-12-20T00:19:36.208Z,75.75
2018-12-20T00:22:04.555Z,76.00
2018-12-20T00:24:32.916Z,75.92
2018-12-20T00:27:01.413Z,75.55
2018-12-20T00:29:29.807Z,75.82
2018-12-20T00:31:57.897Z,75.67
2018-12-20T00:34:26.609Z,75.71
2018-12-20T00:36:54.633Z,75.87
2018-12-20T00:39:22.940Z,75.76
2018-12-20T00:41:51.248Z,75.93
2018-12-20T00:44:19.656Z,75.77
2018-12-20T00:46:47.902Z,75.90
2018-12-20T00:49:16.237Z,75.75
2018-12-20T00:51:44.563Z,75.69
2018-12-20T00:54:13.332Z,75.96
2018-12-20T00:56:41.674Z,75.97
2018-12-20T00:59:10.371Z,75.85
2018-12-20T01:01:38.874Z,75.86
2018-12-20T01:04:07.047Z,75.82
2018-12-20T01:06:35.354Z,75.67
2018-12-20T01:09:03.739Z,75.64
2018-12-20T01:11:32.008Z,75.63
2018-12-20T01:14:00.339Z,75.79
2018-12-20T01:16:28.876Z,76.07
2018-12-20T01:18:57.145Z,76.17
2018-12-20T01:21:25.611Z,75.99
2018-12-20T01:23:53.743Z,75.94
2018-12-20T01:26:22.093Z,76.10
2018-12-20T01:28:50.618Z,76.29
2018-12-20T01:31:18.817Z,76.10
2018-12-20T01:33:47.043Z,76.06
2018-12-20T01:36:15.413Z,75.84
2018-12-20T01:38:43.787Z,75.99
2018-12-20T01:41:12.069Z,75.83
2018-12-20T01:43:40.315Z,75.94
2018-12-20T01:46:09.098Z,76.09
2018-12-20T01:48:37.270Z,76.08
2018-12-20T01:51:05.610Z,76.04
2018-12-20T01:53:33.946Z,76.08
2018-12-20T01:56:02.349Z,75.84
2018-12-20T01:58:30.617Z,75.89
2018-12-20T02:00:58.994Z,75.99
2018-12-20T02:03:27.369Z,75.59
2018-12-20T02:05:55.614Z,75.71
2018-12-20T02:08:24.015Z,75.71
2018-12-20T02:10:52.273Z,75.64
2018-12-20T02:13:20.747Z,75.78
2018-12-20T02:15:48.961Z,75.84
2018-12-20T02:18:17.259Z,75.89
2018-12-20T02:20:45.757Z,75.61
2018-12-20T02:23:14.015Z,75.66
2018-12-20T02:25:42.247Z,75.62
2018-12-20T02:28:10.586Z,75.65
2018-12-20T02:30:38.900Z,75.62
2018-12-20T02:33:07.335Z,75.85
2018-12-20T02:35:35.749Z,75.90
2018-12-20T02:38:04.041Z,75.64
2018-12-20T02:40:32.323Z,75.46
2018-12-20T02:43:00.562Z,75.41
2018-12-20T02:45:28.896Z,75.49
2018-12-20T02:47:57.179Z,75.54
2018-12-20T02:50:25.529Z,75.45
2018-12-20T02:52:53.912Z,75.53
2018-12-20T02:55:22.238Z,75.50
2018-12-20T02:57:50.913Z,75.57
2018-12-20T03:00:19.135Z,75.70
2018-12-20T03:02:47.472Z,75.77
2018-12-20T03:05:15.801Z,75.54
2018-12-20T03:07:44.181Z,75.57
2018-12-20T03:10:12.762Z,75.75
2018-12-20T03:12:40.802Z,75.56
2018-12-20T03:15:09.331Z,75.64
2018-12-20T03:17:37.647Z,75.86
2018-12-20T03:20:05.816Z,75.64
2018-12-20T03:22:34.475Z,75.75
2018-12-20T03:25:02.490Z,75.60
2018-12-20T03:27:31.658Z,75.50
2018-12-20T03:29:59.945Z,75.43
2018-12-20T03:32:28.191Z,75.44
2018-12-20T03:34:56.516Z,75.42
2018-12-20T03:37:24.919Z,75.35
2018-12-20T03:39:53.262Z,75.40
2018-12-20T03:42:21.692Z,75.67
2018-12-20T03:44:49.881Z,75.55
2018-12-20T03:47:18.177Z,75.64
2018-12-20T03:49:46.502Z,75.51
2018-12-20T03:52:14.931Z,75.75
2018-12-20T03:54:43.184Z,75.92
2018-12-20T03:57:11.507Z,75.85
2018-12-20T03:59:39.836Z,75.64
2018-12-20T04:02:08.479Z,75.69
2018-12-20T04:04:36.640Z,75.71
2018-12-20T04:07:04.972Z,75.69
2018-12-20T04:09:33.342Z,75.53
2018-12-20T04:12:01.766Z,75.52
2018-12-20T04:14:30.046Z,75.73
2018-12-20T04:16:58.295Z,75.61
2018-12-20T04:19:26.646Z,75.50
2018-12-20T04:21:55.175Z,75.57
2018-12-20T04:24:23.155Z,76.05
2018-12-20T04:26:51.477Z,76.01
2018-12-20T04:29:19.959Z,75.58
2018-12-20T04:31:48.357Z,75.57
2018-12-20T04:34:16.529Z,75.75
2018-12-20T04:36:44.799Z,76.01
2018-12-20T04:39:13.169Z,75.73
2018-12-20T04:41:41.460Z,75.62
2018-12-20T04:44:10.002Z,75.58
2018-12-20T04:46:38.110Z,75.52
2018-12-20T04:49:06.618Z,75.70
2018-12-20T04:51:35.317Z,75.71
2018-12-20T04:54:03.109Z,75.65
2018-12-20T04:56:31.438Z,75.82
2018-12-20T04:58:59.995Z,75.76
2018-12-20T05:01:28.346Z,75.80
2018-12-20T05:03:56.510Z,75.68
2018-12-20T05:06:24.850Z,75.62
2018-12-20T05:08:53.129Z,75.86
2018-12-20T05:11:21.682Z,75.55
2018-12-20T05:13:49.784Z,75.67
2018-12-20T05:16:18.143Z,75.84
2018-12-20T05:18:46.504Z,75.61
2018-12-20T05:21:14.898Z,75.67
2018-12-20T05:23:43.100Z,75.79
2018-12-20T05:26:11.432Z,75.98
2018-12-20T05:28:39.790Z,75.74
2018-12-20T05:31:08.809Z,75.74
2018-12-20T05:33:36.508Z,75.95
2018-12-20T05:36:04.834Z,75.67
2018-12-20T05:38:33.121Z,75.66
2018-12-20T05:41:01.446Z,75.77
2018-12-20T05:43:29.822Z,75.70
2018-12-20T05:46:04.388Z,75.77
2018-12-20T05:48:26.742Z,75.67
2018-12-20T05:50:54.904Z,75.91
2018-12-20T05:53:23.178Z,76.04
2018-12-20T05:55:51.539Z,76.04
2018-12-20T05:58:19.875Z,75.96
2018-12-20T06:00:48.451Z,76.27
2018-12-20T06:03:16.729Z,76.25
2018-12-20T06:05:45.013Z,76.31
2018-12-20T06:08:13.188Z,76.05
2018-12-20T06:10:41.644Z,76.19
2018-12-20T06:13:09.936Z,76.08
2018-12-20T06:15:38.198Z,76.15
2018-12-20T06:18:06.691Z,76.18
2018-12-20T06:20:34.939Z,76.15
2018-12-20T06:23:03.198Z,76.01
2018-12-20T06:25:31.901Z,76.04
2018-12-20T06:28:00.230Z,76.03
2018-12-20T06:30:28.575Z,75.96
2018-12-20T06:32:56.907Z,75.88
2018-12-20T06:35:25.245Z,75.95
2018-12-20T06:37:53.568Z,75.88
2018-12-20T06:40:21.900Z,75.89
2018-12-20T06:42:50.243Z,75.97
2018-12-20T06:45:18.564Z,75.86
2018-12-20T06:47:46.901Z,76.02
2018-12-20T06:50:15.236Z,75.97
2018-12-20T06:52:43.570Z,75.86
2018-12-20T06:55:11.896Z,75.97
2018-12-20T06:57:40.224Z,75.77
2018-12-20T07:00:08.561Z,75.89
2018-12-20T07:02:38.504Z,75.92
2018-12-20T07:05:05.229Z,75.86
2018-12-20T07:07:33.816Z,75.77
2018-12-20T07:10:01.917Z,75.79
2018-12-20T07:12:30.258Z,75.58
2018-12-20T07:14:58.816Z,75.76
2018-12-20T07:17:26.916Z,75.80
2018-12-20T07:19:55.259Z,75.82
2018-12-20T07:22:23.587Z,75.62
2018-12-20T07:24:51.926Z,75.76
2018-12-20T07:27:20.258Z,75.51
2018-12-20T07:29:48.586Z,75.58
2018-12-20T07:32:24.801Z,75.78
2018-12-20T07:34:48.013Z,75.90
2018-12-20T07:37:13.589Z,75.77
2018-12-20T07:39:42.832Z,75.83
2018-12-20T07:42:11.180Z,75.72
2018-12-20T07:44:39.509Z,75.48
2018-12-20T07:47:07.840Z,75.84
2018-12-20T07:49:36.204Z,75.83
2018-12-20T07:52:04.557Z,77.70
2018-12-20T07:54:32.931Z,76.34
2018-12-20T07:57:01.261Z,75.80
2018-12-20T07:59:29.594Z,75.59
2018-12-20T08:01:58.025Z,75.22
2018-12-20T08:04:26.588Z,75.34
2018-12-20T08:06:54.916Z,75.60
2018-12-20T08:09:23.554Z,75.36
2018-12-20T08:11:51.892Z,75.35
2018-12-20T08:14:20.235Z,75.53
2018-12-20T08:16:48.577Z,75.63
2018-12-20T08:19:16.915Z,75.63
2018-12-20T08:21:45.244Z,75.84
2018-12-20T08:24:13.585Z,75.69
2018-12-20T08:26:41.921Z,75.39
2018-12-20T08:29:10.267Z,75.15
2018-12-20T08:31:38.593Z,74.97
2018-12-20T08:34:06.945Z,75.29
2018-12-20T08:36:35.281Z,75.11
2018-12-20T08:39:03.826Z,75.29
2018-12-20T08:41:32.843Z,75.39
2018-12-20T08:44:01.174Z,75.33
2018-12-20T08:46:31.648Z,75.39
2018-12-20T08:48:57.857Z,75.09
2018-12-20T08:51:26.195Z,75.17
2018-12-20T08:53:54.526Z,75.41
2018-12-20T08:56:22.884Z,75.13
2018-12-20T08:58:51.211Z,74.61
2018-12-20T09:01:19.551Z,74.59
2018-12-20T09:03:47.894Z,74.77
2018-12-20T09:06:16.213Z,74.95
2018-12-20T09:08:45.561Z,74.89
2018-12-20T09:11:14.216Z,74.87
2018-12-20T09:13:42.564Z,74.78
2018-12-20T09:16:10.902Z,74.92
2018-12-20T09:18:39.224Z,75.10
2018-12-20T09:21:07.559Z,74.98
2018-12-20T09:23:36.163Z,75.07
2018-12-20T09:26:04.493Z,74.99
2018-12-20T09:28:32.847Z,75.00
2018-12-20T09:31:01.184Z,75.05
2018-12-20T09:33:29.525Z,75.07
2018-12-20T09:35:57.861Z,75.02
2018-12-20T09:38:26.190Z,75.06
2018-12-20T09:40:54.520Z,74.98
2018-12-20T09:43:24.887Z,75.01
2018-12-20T09:45:51.192Z,75.10
2018-12-20T09:48:19.510Z,74.84
2018-12-20T09:50:47.847Z,74.60
2018-12-20T09:53:16.191Z,74.75
2018-12-20T09:55:44.747Z,74.79
2018-12-20T09:58:12.857Z,75.13
2018-12-20T10:00:41.270Z,75.23
2018-12-20T10:03:09.579Z,75.17
2018-12-20T10:05:37.922Z,75.42
2018-12-20T10:08:06.244Z,75.56
2018-12-20T10:10:34.581Z,75.41
2018-12-20T10:13:02.921Z,75.24
2018-12-20T10:15:31.266Z,75.10
2018-12-20T10:17:59.617Z,75.19
2018-12-20T10:20:27.928Z,75.64
2018-12-20T10:22:56.270Z,75.51
2018-12-20T10:25:24.855Z,75.29
2018-12-20T10:27:52.962Z,75.09
2018-12-20T10:30:21.456Z,75.09
2018-12-20T10:32:49.795Z,75.25
2018-12-20T10:35:18.143Z,75.42
2018-12-20T10:37:46.496Z,75.55
2018-12-20T10:40:14.827Z,75.35
2018-12-20T10:42:43.176Z,75.67
2018-12-20T10:45:11.496Z,75.56
2018-12-20T10:47:39.848Z,75.95
2018-12-20T10:50:08.177Z,76.31
2018-12-20T10:52:36.893Z,76.47
2018-12-20T10:55:06.127Z,76.58
2018-12-20T10:57:34.477Z,76.81
2018-12-20T11:00:03.073Z,77.29
2018-12-20T11:02:36.923Z,77.77
2018-12-20T11:05:05.302Z,77.81
2018-12-20T11:07:39.381Z,78.07
2018-12-20T11:10:13.007Z,78.31
2018-12-20T11:12:46.899Z,78.38
2018-12-20T11:15:15.323Z,78.14
2018-12-20T11:17:43.649Z,78.50
2018-12-20T11:20:12.131Z,78.48
2018-12-20T11:22:40.501Z,78.11
2018-12-20T11:25:08.857Z,78.46
2018-12-20T11:27:37.203Z,78.56
2018-12-20T11:30:05.558Z,78.22
2018-12-20T11:32:33.893Z,78.36
2018-12-20T11:35:02.229Z,78.45
2018-12-20T11:37:31.749Z,78.40
2018-12-20T11:39:59.988Z,78.10
2018-12-20T11:42:28.210Z,78.00
2018-12-20T11:44:56.565Z,78.39
2018-12-20T11:47:24.887Z,78.52
2018-12-20T11:49:53.216Z,78.78
2018-12-20T11:52:21.566Z,78.77
2018-12-20T11:54:49.901Z,79.28
2018-12-20T11:57:18.481Z,79.14
2018-12-20T11:59:46.583Z,79.00
2018-12-20T12:02:14.937Z,78.99
2018-12-20T12:04:43.844Z,78.97
2018-12-20T12:07:12.178Z,79.09
2018-12-20T12:09:40.514Z,78.90
2018-12-20T12:12:08.853Z,79.52
2018-12-20T12:14:37.196Z,79.73
2018-12-20T12:17:05.905Z,79.42
2018-12-20T12:19:34.239Z,79.22
2018-12-20T12:22:02.585Z,79.47
2018-12-20T12:24:30.917Z,79.64
2018-12-20T12:26:59.259Z,79.68
2018-12-20T12:29:27.580Z,79.62
2018-12-20T12:31:55.914Z,79.73
2018-12-20T12:34:24.262Z,79.77
2018-12-20T12:36:52.600Z,80.32
2018-12-20T12:39:20.935Z,80.36
2018-12-20T12:41:49.256Z,80.40
2018-12-20T12:44:17.601Z,80.18
2018-12-20T12:46:45.937Z,80.69
2018-12-20T12:49:14.552Z,80.70
2018-12-20T12:51:43.805Z,80.27
2018-12-20T12:54:11.223Z,80.42
2018-12-20T12:56:39.560Z,80.09
2018-12-20T12:59:07.901Z,79.85
2018-12-20T13:01:36.218Z,79.87
2018-12-20T13:04:04.551Z,80.37
2018-12-20T13:06:32.879Z,80.08
2018-12-20T13:09:01.218Z,80.48
2018-12-20T13:11:29.574Z,80.37
2018-12-20T13:13:57.921Z,80.83
2018-12-20T13:16:26.250Z,80.90
2018-12-20T13:18:54.592Z,80.78
2018-12-20T13:21:22.934Z,80.57
2018-12-20T13:23:51.578Z,80.52
2018-12-20T13:26:19.933Z,80.43
2018-12-20T13:28:48.254Z,81.16
2018-12-20T13:31:16.861Z,81.86
2018-12-20T13:33:45.207Z,81.42
2018-12-20T13:36:13.535Z,81.18
2018-12-20T13:38:41.869Z,81.15
2018-12-20T13:41:10.205Z,80.83
2018-12-20T13:43:38.546Z,80.73
2018-12-20T13:46:06.889Z,81.32
2018-12-20T13:48:35.216Z,81.66
2018-12-20T13:51:03.649Z,81.50
2018-12-20T13:53:31.983Z,81.41
2018-12-20T13:56:00.335Z,81.36
2018-12-20T13:58:28.663Z,81.29
2018-12-20T14:00:56.989Z,81.60
2018-12-20T14:03:25.317Z,81.36
2018-12-20T14:05:53.667Z,81.50
2018-12-20T14:08:22.007Z,81.58
2018-12-20T14:10:50.320Z,81.48
2018-12-20T14:13:18.662Z,81.37
2018-12-20T14:15:47.003Z,81.58
2018-12-20T14:18:15.349Z,81.64
2018-12-20T14:20:43.697Z,81.61
2018-12-20T14:23:12.049Z,81.63
2018-12-20T14:25:40.388Z,81.79
2018-12-20T14:28:08.751Z,81.59
2018-12-20T14:30:37.113Z,81.53
2018-12-20T14:33:05.475Z,81.42
2018-12-20T14:35:33.801Z,81.90
2018-12-20T14:38:02.137Z,81.78
2018-12-20T14:40:30.464Z,81.88
2018-12-20T14:42:58.793Z,82.22
2018-12-20T14:45:27.132Z,82.14
2018-12-20T14:47:55.478Z,82.13
2018-12-20T14:50:23.803Z,82.08
2018-12-20T14:52:52.165Z,82.09
2018-12-20T14:55:20.499Z,81.98
2018-12-20T14:57:48.842Z,81.71
2018-12-20T15:00:17.178Z,81.83
2018-12-20T15:02:45.512Z,81.80
2018-12-20T15:05:13.864Z,81.65
2018-12-20T15:07:42.189Z,81.72
2018-12-20T15:10:10.545Z,81.83
2018-12-20T15:12:38.925Z,81.90
2018-12-20T15:15:07.262Z,81.63
2018-12-20T15:17:36.972Z,81.60
2018-12-20T15:20:03.959Z,81.31
2018-12-20T15:22:32.303Z,81.02
2018-12-20T15:25:00.639Z,81.17
2018-12-20T15:27:28.992Z,81.35
2018-12-20T15:29:57.330Z,81.56
2018-12-20T15:32:26.527Z,81.65
2018-12-20T15:34:54.052Z,81.61
2018-12-20T15:37:22.423Z,81.64
2018-12-20T15:39:51.419Z,81.46
2018-12-20T15:42:19.752Z,81.43
2018-12-20T15:44:48.087Z,81.45
2018-12-20T15:47:16.452Z,81.46
2018-12-20T15:49:44.792Z,81.47
2018-12-20T15:52:13.130Z,81.33
2018-12-20T15:54:41.478Z,81.29
2018-12-20T15:57:09.820Z,81.02
2018-12-20T15:59:38.185Z,81.15
2018-12-20T16:02:06.513Z,81.27
2018-12-20T16:04:34.861Z,81.26
2018-12-20T16:07:03.199Z,81.32
2018-12-20T16:09:31.879Z,81.05
2018-12-20T16:12:00.226Z,81.02
2018-12-20T16:14:28.551Z,81.33
2018-12-20T16:16:56.883Z,81.55
2018-12-20T16:19:25.227Z,81.58
2018-12-20T16:21:53.564Z,81.53
2018-12-20T16:24:21.908Z,81.55
2018-12-20T16:26:50.295Z,81.62
2018-12-20T16:29:18.634Z,81.46
2018-12-20T16:31:47.492Z,81.44
2018-12-20T16:34:16.170Z,81.41
2018-12-20T16:36:44.506Z,81.58
2018-12-20T16:39:12.854Z,81.53
2018-12-20T16:41:41.199Z,81.50
2018-12-20T16:44:09.533Z,81.52
2018-12-20T16:46:38.083Z,81.57
2018-12-20T16:49:13.390Z,81.62
2018-12-20T16:51:34.539Z,81.89
2018-12-20T16:54:02.881Z,81.99
2018-12-20T16:56:31.537Z,81.94
2018-12-20T16:58:59.872Z,81.77
2018-12-20T17:01:28.236Z,81.70
2018-12-20T17:03:56.948Z,81.80
2018-12-20T17:06:25.301Z,81.78
2018-12-20T17:08:53.970Z,81.83
2018-12-20T17:11:22.312Z,81.60
2018-12-20T17:13:50.632Z,81.49
2018-12-20T17:16:18.975Z,81.67
2018-12-20T17:18:47.609Z,81.56
2018-12-20T17:21:15.675Z,82.06
2018-12-20T17:23:44.054Z,82.16
2018-12-20T17:26:12.405Z,82.14
2018-12-20T17:28:40.750Z,82.04
2018-12-20T17:31:09.092Z,81.92
2018-12-20T17:33:37.436Z,82.06
2018-12-20T17:36:05.774Z,82.07
2018-12-20T17:38:34.329Z,82.06
2018-12-20T17:41:02.672Z,81.86
2018-12-20T17:43:30.999Z,81.69
2018-12-20T17:45:59.339Z,81.78
2018-12-20T17:48:29.367Z,81.97
2018-12-20T17:50:56.032Z,81.92
2018-12-20T17:53:24.371Z,82.07
2018-12-20T17:55:52.798Z,82.29
2018-12-20T17:58:21.158Z,82.28
2018-12-20T18:00:49.522Z,82.48
2018-12-20T18:03:17.895Z,82.45
2018-12-20T18:05:46.235Z,82.37
2018-12-20T18:08:14.639Z,82.14
2018-12-20T18:10:43.300Z,82.46
2018-12-20T18:13:11.881Z,82.52
2018-12-20T18:15:40.068Z,82.54
2018-12-20T18:18:08.519Z,82.59
2018-12-20T18:20:36.794Z,82.85
2018-12-20T18:23:05.143Z,83.07
2018-12-20T18:25:33.483Z,83.21
2018-12-20T18:28:01.838Z,83.14
2018-12-20T18:30:30.189Z,82.91
2018-12-20T18:32:58.557Z,82.97
2018-12-20T18:35:26.860Z,83.01
2018-12-20T18:37:55.912Z,83.08
2018-12-20T18:40:24.259Z,82.86
2018-12-20T18:42:52.630Z,82.83
2018-12-20T18:45:20.966Z,82.50
2018-12-20T18:47:49.322Z,82.47
2018-12-20T18:50:17.735Z,82.41
2018-12-20T18:52:46.128Z,82.38
2018-12-20T18:55:14.510Z,82.55
2018-12-20T18:57:42.860Z,82.43
2018-12-20T19:00:11.198Z,82.31
2018-12-20T19:02:39.757Z,82.48
2018-12-20T19:05:07.861Z,82.29
2018-12-20T19:07:36.250Z,82.30
2018-12-20T19:10:05.549Z,82.20
2018-12-20T19:12:33.895Z,82.25
2018-12-20T19:15:02.236Z,82.33
2018-12-20T19:17:30.576Z,82.03
2018-12-20T19:19:58.925Z,82.43
2018-12-20T19:22:27.273Z,82.34
2018-12-20T19:24:55.622Z,82.32
2018-12-20T19:27:23.973Z,82.46
2018-12-20T19:29:52.315Z,82.60
2018-12-20T19:32:21.311Z,82.61
2018-12-20T19:34:49.654Z,82.51
2018-12-20T19:37:18.398Z,82.49
2018-12-20T19:39:46.727Z,82.32
2018-12-20T19:42:15.088Z,82.38
2018-12-20T19:44:43.402Z,82.32
2018-12-20T19:47:11.912Z,82.23
2018-12-20T19:49:40.508Z,82.19
2018-12-20T19:52:09.428Z,82.12
2018-12-20T19:54:37.870Z,82.14
2018-12-20T19:57:06.199Z,82.12
2018-12-20T19:59:38.592Z,82.15
2018-12-20T20:02:04.742Z,82.20
2018-12-20T20:04:31.244Z,82.21
2018-12-20T20:06:59.615Z,82.12
2018-12-20T20:09:28.217Z,82.15
2018-12-20T20:11:56.341Z,82.28
2018-12-20T20:14:24.701Z,82.38
2018-12-20T20:16:53.043Z,82.61
2018-12-20T20:19:21.395Z,82.80
2018-12-20T20:21:49.752Z,82.64
2018-12-20T20:24:18.151Z,82.53
2018-12-20T20:26:46.515Z,82.38
2018-12-20T20:29:14.839Z,82.37
2018-12-20T20:31:43.186Z,82.19
2018-12-20T20:34:11.827Z,82.33
2018-12-20T20:36:40.193Z,82.38
2018-12-20T20:39:08.685Z,82.17
2018-12-20T20:41:37.023Z,82.28
2018-12-20T20:44:05.384Z,82.32
2018-12-20T20:46:33.722Z,82.44
2018-12-20T20:49:02.059Z,82.25
2018-12-20T20:51:30.730Z,82.49
2018-12-20T20:53:59.093Z,82.76
2018-12-20T20:56:27.422Z,82.90
2018-12-20T20:58:55.768Z,82.74
2018-12-20T21:01:24.122Z,82.84
2018-12-20T21:03:52.468Z,82.85
2018-12-20T21:06:21.712Z,82.88
2018-12-20T21:08:50.115Z,82.77
2018-12-20T21:11:18.467Z,82.80
2018-12-20T21:13:46.812Z,82.70
2018-12-20T21:16:15.174Z,82.64
2018-12-20T21:18:43.493Z,82.76
2018-12-20T21:21:11.837Z,82.81
2018-12-20T21:23:40.194Z,82.66
2018-12-20T21:26:08.541Z,82.83
2018-12-20T21:28:36.879Z,82.73
2018-12-20T21:31:05.538Z,82.54
2018-12-20T21:33:34.215Z,82.37
2018-12-20T21:36:02.557Z,82.50
2018-12-20T21:38:30.906Z,82.74
2018-12-20T21:40:59.246Z,82.97
2018-12-20T21:43:27.587Z,83.14
2018-12-20T21:45:55.927Z,83.09
2018-12-20T21:48:24.268Z,83.04
2018-12-20T22:08:49.572Z,82.50
2018-12-20T22:11:17.920Z,82.59
2018-12-20T22:13:46.256Z,82.56
2018-12-20T22:16:14.688Z,82.52
2018-12-20T22:18:43.138Z,82.49
2018-12-20T22:21:11.492Z,82.42
2018-12-20T22:23:39.847Z,82.38
2018-12-20T22:26:08.249Z,82.37
2018-12-20T22:28:36.598Z,82.32
2018-12-20T22:31:04.960Z,82.48
2018-12-20T22:33:33.289Z,82.37
2018-12-20T22:36:01.689Z,82.55
2018-12-20T22:38:30.035Z,82.41
2018-12-20T22:40:58.371Z,82.33
2018-12-20T22:43:26.701Z,82.28
2018-12-20T22:45:55.278Z,82.39
2018-12-20T22:48:23.407Z,82.50
2018-12-20T22:50:55.915Z,82.46
2018-12-20T22:53:20.072Z,82.32
2018-12-20T22:55:48.400Z,82.18
2018-12-20T22:58:16.751Z,82.19
2018-12-20T23:00:45.086Z,82.17
2018-12-20T23:03:13.686Z,82.25
2018-12-20T23:05:41.818Z,82.37
2018-12-20T23:08:10.183Z,82.45
2018-12-20T23:10:38.516Z,82.72
2018-12-20T23:13:06.847Z,82.77
2018-12-20T23:15:35.206Z,82.63
2018-12-20T23:18:03.574Z,82.51
2018-12-20T23:20:31.926Z,82.43
2018-12-20T23:23:00.262Z,82.25
2018-12-20T23:25:28.584Z,82.34
2018-12-20T23:27:56.919Z,82.27
2018-12-20T23:30:26.279Z,82.26
2018-12-20T23:32:54.624Z,82.23
2018-12-20T23:35:22.967Z,82.29
2018-12-20T23:37:51.308Z,82.30
2018-12-20T23:40:19.647Z,82.48
2018-12-20T23:42:48.017Z,82.60
2018-12-20T23:45:16.344Z,82.58
2018-12-20T23:47:44.672Z,82.59
2018-12-20T23:50:13.012Z,82.53
2018-12-20T23:52:41.361Z,82.27
2018-12-20T23:55:09.702Z,82.24
2018-12-20T23:57:38.054Z,82.41
